Time;durP1;ratioP1;P1;durP2;ratioP2;P2;SDS_P1;SDS_P2;PMS_P1;PMS_P2;Temp;Humidity;BMP_temperature;BMP_pressure;BME280_temperature;BME280_humidity;BME280_pressure;Samples;Min_cycle;Max_cycle;Signal;HPM_P1;HPM_P2
2022/11/02 00:00:17;;;;;;;;;;;;;;;17.10;77.66;100945.84;1297448;22;593;-77
2022/11/02 00:01:08;;;;;;;;;;;;;;;17.12;77.99;100957.31;1297460;22;633;-75
2022/11/02 00:01:58;;;;;;;;;;;;;;;17.14;77.80;100952.66;1297277;22;625;-76
2022/11/02 00:02:49;;;;;;;;;;;;;;;17.12;76.68;100946.53;1297432;22;617;-75
2022/11/02 00:03:39;;;;;;;;;;;;;;;17.10;77.75;100952.06;1297478;22;644;-76
2022/11/02 00:04:30;;;;;;;;;;;;;;;17.05;77.01;100948.94;1297439;22;629;-75
2022/11/02 00:05:23;;;;;;;;;;;;;;;17.09;77.66;100953.06;1297589;22;664;-76
2022/11/02 00:06:13;;;;;;;;;;;;;;;17.06;77.09;100945.25;1297327;22;732;-76
2022/11/02 00:07:04;;;;;;;;;;;;;;;17.07;78.42;100941.56;1297336;22;693;-76
2022/11/02 00:07:54;;;;;;;;;;;;;;;17.09;77.24;100938.75;1297672;22;685;-75
2022/11/02 00:08:45;;;;;;;;;;;;;;;16.99;76.20;100944.13;1297303;22;637;-76
2022/11/02 00:09:35;;;;;;;;;;;;;;;16.99;77.81;100939.59;1297591;22;621;-76
2022/11/02 00:10:26;;;;;;;;;;;;;;;17.02;77.31;100948.38;1297370;22;669;-76
2022/11/02 00:11:16;;;;;;;;;;;;;;;17.06;77.23;100939.88;1297395;22;664;-76
2022/11/02 00:12:07;;;;;;;;;;;;;;;17.09;77.40;100955.75;1297360;22;606;-75
2022/11/02 00:12:57;;;;;;;;;;;;;;;17.06;77.80;100950.63;1297386;22;652;-75
2022/11/02 00:13:47;;;;;;;;;;;;;;;17.07;78.18;100949.66;1297196;22;645;-75
2022/11/02 00:14:38;;;;;;;;;;;;;;;17.11;77.46;100952.91;1297479;22;621;-77
2022/11/02 00:15:29;;;;;;;;;;;;;;;17.12;77.95;100949.25;1297482;22;704;-75
2022/11/02 00:16:19;;;;;;;;;;;;;;;17.08;77.66;100954.03;1297495;22;676;-75
2022/11/02 00:17:09;;;;;;;;;;;;;;;17.00;76.78;100941.28;1297307;22;738;-74
2022/11/02 00:18:00;;;;;;;;;;;;;;;17.09;77.49;100949.50;1297749;22;641;-74
2022/11/02 00:18:50;;;;;;;;;;;;;;;17.02;77.51;100945.69;1297756;22;621;-74
2022/11/02 00:19:41;;;;;;;;;;;;;;;17.00;78.13;100954.75;1297811;22;641;-76
2022/11/02 00:20:31;;;;;;;;;;;;;;;17.06;77.90;100947.09;1297842;22;633;-75
2022/11/02 00:21:22;;;;;;;;;;;;;;;17.09;76.90;100954.91;1297755;22;669;-75
2022/11/02 00:22:12;;;;;;;;;;;;;;;16.96;75.77;100953.31;1297750;22;617;-75
2022/11/02 00:23:03;;;;;;;;;;;;;;;16.95;77.44;100950.75;1297950;22;1935;-76
2022/11/02 00:23:53;;;;;;;;;;;;;;;16.90;76.66;100948.47;1297668;22;660;-76
2022/11/02 00:24:44;;;;;;;;;;;;;;;16.95;78.04;100943.53;1297836;22;752;-75
2022/11/02 00:25:34;;;;;;;;;;;;;;;16.99;78.01;100950.34;1297931;22;665;-75
2022/11/02 00:26:25;;;;;;;;;;;;;;;16.97;76.05;100938.88;1297672;22;632;-76
2022/11/02 00:27:15;;;;;;;;;;;;;;;17.02;77.35;100941.97;1297257;22;660;-76
2022/11/02 00:28:06;;;;;;;;;;;;;;;17.05;76.56;100940.00;1297766;22;668;-76
2022/11/02 00:28:56;;;;;;;;;;;;;;;16.96;76.77;100944.41;1297827;22;652;-75
2022/11/02 00:29:47;;;;;;;;;;;;;;;16.99;77.51;100944.97;1297688;22;707;-75
2022/11/02 00:30:37;;;;;;;;;;;;;;;16.98;78.14;100937.88;1297759;22;632;-76
2022/11/02 00:31:27;;;;;;;;;;;;;;;16.92;76.33;100943.81;1297920;22;671;-75
2022/11/02 00:32:18;;;;;;;;;;;;;;;16.91;76.98;100946.63;1297741;22;651;-76
2022/11/02 00:33:08;;;;;;;;;;;;;;;16.90;76.37;100956.56;1297769;22;668;-75
2022/11/02 00:33:59;;;;;;;;;;;;;;;16.61;74.94;100960.97;1297750;22;668;-75
2022/11/02 00:34:49;;;;;;;;;;;;;;;16.53;76.66;100958.94;1297784;22;703;-75
2022/11/02 00:35:40;;;;;;;;;;;;;;;16.50;76.77;100951.13;1298691;22;691;-75
2022/11/02 00:36:30;;;;;;;;;;;;;;;16.70;78.12;100949.41;1297793;22;711;-75
2022/11/02 00:37:21;;;;;;;;;;;;;;;16.81;77.30;100948.47;1297688;22;656;-75
2022/11/02 00:38:11;;;;;;;;;;;;;;;16.74;76.37;100955.38;1297840;22;676;-76
2022/11/02 00:39:01;;;;;;;;;;;;;;;16.76;76.38;100956.09;1297621;22;699;-75
2022/11/02 00:39:52;;;;;;;;;;;;;;;16.56;74.70;100953.28;1297752;22;676;-75
2022/11/02 00:40:42;;;;;;;;;;;;;;;16.70;76.60;100965.56;1297955;22;683;-75
2022/11/02 00:41:33;;;;;;;;;;;;;;;16.62;76.10;100962.66;1297118;22;659;-76
2022/11/02 00:42:23;;;;;;;;;;;;;;;16.70;76.82;100962.00;1297887;22;723;-76
2022/11/02 00:43:14;;;;;;;;;;;;;;;16.65;77.76;100965.13;1297419;22;1932;-76
2022/11/02 00:44:04;;;;;;;;;;;;;;;16.81;77.47;100973.53;1297862;22;629;-75
2022/11/02 00:44:55;;;;;;;;;;;;;;;16.83;77.19;100965.34;1297639;22;699;-75
2022/11/02 00:45:45;;;;;;;;;;;;;;;16.90;77.14;100964.63;1297352;22;688;-75
2022/11/02 00:46:35;;;;;;;;;;;;;;;16.95;77.19;100964.22;1297595;22;624;-76
2022/11/02 00:47:26;;;;;;;;;;;;;;;16.94;77.37;100967.91;1296836;22;625;-76
2022/11/02 00:48:16;;;;;;;;;;;;;;;16.82;75.56;100959.09;1297777;22;673;-76
2022/11/02 00:49:07;;;;;;;;;;;;;;;16.75;75.99;100968.69;1297703;22;535;-75
2022/11/02 00:49:57;;;;;;;;;;;;;;;16.65;76.40;100963.28;1297123;22;1126;-75
2022/11/02 00:50:48;;;;;;;;;;;;;;;16.72;77.52;100963.56;1298258;22;675;-76
2022/11/02 00:51:38;;;;;;;;;;;;;;;16.42;76.33;100967.13;1296861;22;784;-76
2022/11/02 00:52:29;;;;;;;;;;;;;;;16.61;77.07;100961.81;1297677;22;787;-76
2022/11/02 00:53:19;;;;;;;;;;;;;;;16.69;77.82;100953.09;1297876;22;605;-75
2022/11/02 00:54:09;;;;;;;;;;;;;;;16.79;76.29;100964.75;1297581;22;637;-75
2022/11/02 00:55:00;;;;;;;;;;;;;;;16.78;77.25;100957.66;1297838;22;656;-76
2022/11/02 00:55:52;;;;;;;;;;;;;;;16.70;76.65;100957.47;1297347;22;668;-75
2022/11/02 00:56:43;;;;;;;;;;;;;;;16.69;75.74;100963.00;1296824;22;664;-76
2022/11/02 00:57:33;;;;;;;;;;;;;;;16.76;77.01;100965.00;1297812;22;632;-76
2022/11/02 00:58:23;;;;;;;;;;;;;;;16.68;74.97;100975.59;1297623;22;621;-75
2022/11/02 00:59:14;;;;;;;;;;;;;;;16.57;75.33;100981.06;1297774;22;664;-75
2022/11/02 01:00:04;;;;;;;;;;;;;;;16.39;75.29;100977.28;1297876;22;633;-74
2022/11/02 01:00:55;;;;;;;;;;;;;;;16.13;75.43;100991.13;1297557;22;664;-75
2022/11/02 01:01:46;;;;;;;;;;;;;;;15.95;75.81;100981.94;1297051;22;676;-75
2022/11/02 01:02:36;;;;;;;;;;;;;;;15.98;76.67;100973.63;1297808;22;641;-75
2022/11/02 01:03:27;;;;;;;;;;;;;;;15.91;75.49;100967.09;1297576;22;1900;-76
2022/11/02 01:04:17;;;;;;;;;;;;;;;15.81;75.23;100963.47;1297883;22;644;-76
2022/11/02 01:05:08;;;;;;;;;;;;;;;16.05;76.64;100947.94;1297624;22;633;-74
2022/11/02 01:05:58;;;;;;;;;;;;;;;15.96;75.95;100937.97;1296924;22;653;-75
2022/11/02 01:06:49;;;;;;;;;;;;;;;15.98;76.40;100931.47;1297621;22;641;-75
2022/11/02 01:07:39;;;;;;;;;;;;;;;16.26;77.18;100956.84;1297755;22;691;-75
2022/11/02 01:08:30;;;;;;;;;;;;;;;16.32;74.70;100961.66;1297717;22;656;-74
2022/11/02 01:09:20;;;;;;;;;;;;;;;16.28;74.42;100949.50;1297755;22;645;-74
2022/11/02 01:10:11;;;;;;;;;;;;;;;16.46;77.09;100957.78;1297549;22;754;-75
2022/11/02 01:11:01;;;;;;;;;;;;;;;16.38;76.51;100960.28;1297623;22;664;-74
2022/11/02 01:11:51;;;;;;;;;;;;;;;16.39;75.38;100940.47;1297600;22;661;-75
2022/11/02 01:12:42;;;;;;;;;;;;;;;16.32;76.15;100942.00;1297703;22;656;-76
2022/11/02 01:13:32;;;;;;;;;;;;;;;16.51;77.69;100944.75;1297771;22;652;-75
2022/11/02 01:14:23;;;;;;;;;;;;;;;16.60;76.70;100937.72;1297648;22;613;-76
2022/11/02 01:15:13;;;;;;;;;;;;;;;16.58;74.71;100940.56;1297775;22;641;-75
2022/11/02 01:16:04;;;;;;;;;;;;;;;16.61;76.27;100936.75;1297584;22;704;-75
2022/11/02 01:16:56;;;;;;;;;;;;;;;16.41;74.50;100925.06;1297749;22;661;-75
2022/11/02 01:17:47;;;;;;;;;;;;;;;16.56;76.10;100936.28;1297690;22;597;-75
2022/11/02 01:18:37;;;;;;;;;;;;;;;16.52;76.14;100926.78;1297642;22;668;-76
2022/11/02 01:19:27;;;;;;;;;;;;;;;16.61;77.30;100934.06;1297793;22;672;-76
2022/11/02 01:20:18;;;;;;;;;;;;;;;16.47;75.80;100929.91;1297664;22;609;-76
2022/11/02 01:21:08;;;;;;;;;;;;;;;16.59;75.76;100941.41;1297749;22;676;-75
2022/11/02 01:21:59;;;;;;;;;;;;;;;16.71;76.60;100939.50;1297620;22;621;-75
2022/11/02 01:22:49;;;;;;;;;;;;;;;16.74;76.78;100934.69;1297685;22;641;-75
2022/11/02 01:23:40;;;;;;;;;;;;;;;16.80;76.71;100942.22;1297729;22;637;-75
2022/11/02 01:24:30;;;;;;;;;;;;;;;16.69;74.78;100947.69;1297627;22;616;-75
2022/11/02 01:25:20;;;;;;;;;;;;;;;16.45;74.60;100953.41;1297824;22;652;-75
2022/11/02 01:26:11;;;;;;;;;;;;;;;16.44;75.78;100948.16;1297579;22;593;-76
2022/11/02 01:27:01;;;;;;;;;;;;;;;16.20;73.65;100943.91;1297756;22;883;-75
2022/11/02 01:27:52;;;;;;;;;;;;;;;16.08;74.38;100953.06;1297530;22;671;-75
2022/11/02 01:28:42;;;;;;;;;;;;;;;15.99;76.45;100948.47;1297626;22;606;-75
2022/11/02 01:29:32;;;;;;;;;;;;;;;16.26;77.38;100956.00;1297804;22;693;-75
2022/11/02 01:30:23;;;;;;;;;;;;;;;16.42;76.74;100959.03;1297659;22;668;-75
2022/11/02 01:31:13;;;;;;;;;;;;;;;16.30;74.85;100960.94;1297709;22;668;-75
2022/11/02 01:32:04;;;;;;;;;;;;;;;16.38;76.16;100948.69;1297640;22;620;-76
2022/11/02 01:32:54;;;;;;;;;;;;;;;16.40;76.50;100949.41;1297691;22;616;-75
2022/11/02 01:33:44;;;;;;;;;;;;;;;16.23;76.76;100959.78;1297642;22;629;-75
2022/11/02 01:34:35;;;;;;;;;;;;;;;16.37;77.18;100950.50;1297715;22;645;-76
2022/11/02 01:35:25;;;;;;;;;;;;;;;16.22;74.23;100949.16;1297744;22;609;-75
2022/11/02 01:36:16;;;;;;;;;;;;;;;16.39;77.40;100951.25;1297536;22;656;-75
2022/11/02 01:37:06;;;;;;;;;;;;;;;16.29;75.47;100956.59;1297760;22;641;-76
2022/11/02 01:37:57;;;;;;;;;;;;;;;16.30;76.22;100960.13;1297619;22;664;-76
2022/11/02 01:38:48;;;;;;;;;;;;;;;16.30;74.57;100965.50;1297653;22;641;-76
2022/11/02 01:39:38;;;;;;;;;;;;;;;16.47;76.81;100964.03;1296092;22;669;-76
2022/11/02 01:40:28;;;;;;;;;;;;;;;16.40;74.45;100954.78;1297637;22;680;-76
2022/11/02 01:41:19;;;;;;;;;;;;;;;16.19;72.98;100950.28;1297511;22;657;-76
2022/11/02 01:42:09;;;;;;;;;;;;;;;15.95;74.43;100945.19;1297556;22;661;-76
2022/11/02 01:43:00;;;;;;;;;;;;;;;16.21;76.25;100944.78;1297466;22;593;-76
2022/11/02 01:43:50;;;;;;;;;;;;;;;16.30;74.00;100936.75;1297626;22;680;-75
2022/11/02 01:44:42;;;;;;;;;;;;;;;16.21;74.90;100942.09;1297602;22;607;-75
2022/11/02 01:45:33;;;;;;;;;;;;;;;16.35;76.72;100943.56;1297509;22;637;-76
2022/11/02 01:46:24;;;;;;;;;;;;;;;16.50;76.43;100942.22;1297691;22;683;-76
2022/11/02 01:47:15;;;;;;;;;;;;;;;16.43;73.67;100941.91;1297600;22;660;-76
2022/11/02 01:48:05;;;;;;;;;;;;;;;16.22;73.31;100943.78;1297674;22;645;-75
2022/11/02 01:48:56;;;;;;;;;;;;;;;16.18;74.07;100953.09;1297510;22;653;-75
2022/11/02 01:49:46;;;;;;;;;;;;;;;16.29;76.62;100945.81;1297562;22;641;-76
2022/11/02 01:50:37;;;;;;;;;;;;;;;16.32;74.85;100950.06;1297529;22;741;-76
2022/11/02 01:51:27;;;;;;;;;;;;;;;16.36;76.21;100948.81;1297642;22;660;-76
2022/11/02 01:52:18;;;;;;;;;;;;;;;16.46;75.06;100946.19;1297832;22;805;-76
2022/11/02 01:53:09;;;;;;;;;;;;;;;16.53;76.33;100945.50;1297562;22;668;-76
2022/11/02 01:53:59;;;;;;;;;;;;;;;16.62;76.24;100947.38;1297145;22;680;-77
2022/11/02 01:54:50;;;;;;;;;;;;;;;16.64;76.24;100953.50;1297637;22;630;-77
2022/11/02 01:55:40;;;;;;;;;;;;;;;16.65;76.21;100949.84;1297786;22;640;-76
2022/11/02 01:56:30;;;;;;;;;;;;;;;16.48;75.87;100950.41;1297732;22;703;-76
2022/11/02 01:57:21;;;;;;;;;;;;;;;16.51;75.27;100950.16;1297604;22;669;-76
2022/11/02 01:58:11;;;;;;;;;;;;;;;16.41;74.73;100959.19;1297628;22;826;-75
2022/11/02 01:59:02;;;;;;;;;;;;;;;16.39;75.43;100950.38;1297579;22;668;-75
2022/11/02 01:59:52;;;;;;;;;;;;;;;16.40;75.22;100957.47;1297617;22;695;-74
2022/11/02 02:00:43;;;;;;;;;;;;;;;16.44;77.12;100948.16;1297522;22;550;-76
2022/11/02 02:01:33;;;;;;;;;;;;;;;16.45;76.47;100955.22;1297570;22;659;-76
2022/11/02 02:02:23;;;;;;;;;;;;;;;16.49;76.27;100962.03;1297666;22;629;-76
2022/11/02 02:03:15;;;;;;;;;;;;;;;16.54;77.14;100946.34;1297503;22;1910;-75
2022/11/02 02:04:06;;;;;;;;;;;;;;;16.43;74.21;100939.22;1297434;22;660;-76
2022/11/02 02:04:56;;;;;;;;;;;;;;;16.47;76.41;100948.75;1297633;22;649;-76
2022/11/02 02:05:47;;;;;;;;;;;;;;;16.50;76.62;100948.44;1297722;22;625;-76
2022/11/02 02:06:37;;;;;;;;;;;;;;;16.27;73.37;100942.41;1297609;22;696;-76
2022/11/02 02:07:28;;;;;;;;;;;;;;;16.19;72.52;100942.22;1297599;22;610;-77
2022/11/02 02:08:18;;;;;;;;;;;;;;;16.11;74.42;100938.50;1296997;22;632;-76
2022/11/02 02:09:09;;;;;;;;;;;;;;;16.31;77.53;100935.75;1297866;22;661;-76
2022/11/02 02:09:59;;;;;;;;;;;;;;;16.33;75.57;100941.84;1297603;22;605;-76
2022/11/02 02:10:50;;;;;;;;;;;;;;;16.33;75.11;100943.69;1297740;22;683;-76
2022/11/02 02:11:40;;;;;;;;;;;;;;;16.28;76.42;100944.13;1297751;22;653;-76
2022/11/02 02:12:30;;;;;;;;;;;;;;;16.38;75.78;100937.91;1297711;22;641;-75
2022/11/02 02:13:21;;;;;;;;;;;;;;;16.42;76.01;100934.84;1297498;22;640;-75
2022/11/02 02:14:11;;;;;;;;;;;;;;;16.11;72.01;100941.19;1297676;22;653;-75
2022/11/02 02:15:02;;;;;;;;;;;;;;;16.24;78.08;100942.69;1297337;22;806;-76
2022/11/02 02:15:52;;;;;;;;;;;;;;;16.36;77.37;100945.25;1297567;22;668;-76
2022/11/02 02:16:43;;;;;;;;;;;;;;;16.34;75.15;100953.47;1298110;22;696;-77
2022/11/02 02:17:33;;;;;;;;;;;;;;;16.20;77.00;100948.44;1296367;22;660;-76
2022/11/02 02:18:23;;;;;;;;;;;;;;;16.35;76.78;100941.72;1296959;22;679;-76
2022/11/02 02:19:14;;;;;;;;;;;;;;;16.47;76.55;100946.03;1297486;22;918;-76
2022/11/02 02:20:05;;;;;;;;;;;;;;;16.54;76.88;100944.50;1297484;22;648;-76
2022/11/02 02:20:55;;;;;;;;;;;;;;;16.42;76.89;100948.28;1297504;22;621;-76
2022/11/02 02:21:45;;;;;;;;;;;;;;;16.39;76.15;100945.00;1297760;22;656;-77
2022/11/02 02:22:36;;;;;;;;;;;;;;;16.35;75.61;100943.56;1297527;22;629;-76
2022/11/02 02:23:26;;;;;;;;;;;;;;;16.31;77.45;100938.44;1297555;22;1936;-76
2022/11/02 02:24:17;;;;;;;;;;;;;;;16.42;76.95;100950.13;1297484;22;672;-75
2022/11/02 02:25:07;;;;;;;;;;;;;;;16.43;75.90;100949.13;1297530;22;668;-75
2022/11/02 02:25:58;;;;;;;;;;;;;;;16.40;77.14;100941.34;1297521;22;657;-76
2022/11/02 02:26:48;;;;;;;;;;;;;;;16.50;77.08;100937.69;1297656;22;644;-77
2022/11/02 02:27:38;;;;;;;;;;;;;;;16.50;76.32;100952.97;1297731;22;660;-77
2022/11/02 02:28:29;;;;;;;;;;;;;;;16.37;76.47;100952.34;1297448;22;883;-76
2022/11/02 02:29:19;;;;;;;;;;;;;;;16.24;76.03;100953.44;1297619;22;789;-77
2022/11/02 02:30:10;;;;;;;;;;;;;;;16.22;74.68;100958.09;1297464;22;732;-77
2022/11/02 02:31:00;;;;;;;;;;;;;;;16.33;77.07;100960.69;1297602;22;702;-76
2022/11/02 02:31:51;;;;;;;;;;;;;;;16.45;77.04;100957.94;1297442;22;672;-76
2022/11/02 02:32:41;;;;;;;;;;;;;;;16.45;75.79;100966.00;1297601;22;664;-75
2022/11/02 02:33:31;;;;;;;;;;;;;;;16.55;76.92;100964.19;1297621;22;636;-76
2022/11/02 02:34:22;;;;;;;;;;;;;;;16.54;75.93;100959.78;1297508;22;679;-76
2022/11/02 02:35:12;;;;;;;;;;;;;;;16.38;74.02;100957.59;1297568;22;660;-75
2022/11/02 02:36:03;;;;;;;;;;;;;;;16.42;77.54;100950.13;1297448;22;723;-76
2022/11/02 02:36:53;;;;;;;;;;;;;;;16.35;77.32;100965.06;1297556;22;707;-75
2022/11/02 02:37:44;;;;;;;;;;;;;;;16.45;77.91;100960.63;1296844;22;727;-76
2022/11/02 02:38:34;;;;;;;;;;;;;;;16.29;74.34;100964.66;1297601;22;652;-75
2022/11/02 02:39:25;;;;;;;;;;;;;;;16.20;77.44;100952.00;1297830;22;609;-75
2022/11/02 02:40:15;;;;;;;;;;;;;;;16.29;75.63;100939.59;1297367;22;652;-75
2022/11/02 02:41:05;;;;;;;;;;;;;;;16.27;76.05;100950.47;1297552;22;645;-75
2022/11/02 02:41:57;;;;;;;;;;;;;;;16.36;76.80;100950.66;1297454;22;620;-75
2022/11/02 02:42:47;;;;;;;;;;;;;;;16.47;76.96;100947.88;1296687;22;661;-76
2022/11/02 02:43:38;;;;;;;;;;;;;;;16.37;73.86;100946.97;1297634;22;1944;-76
2022/11/02 02:44:28;;;;;;;;;;;;;;;16.30;77.28;100957.44;1297514;22;636;-76
2022/11/02 02:45:18;;;;;;;;;;;;;;;16.33;76.85;100952.63;1297647;22;637;-76
2022/11/02 02:46:09;;;;;;;;;;;;;;;16.25;75.92;100944.38;1297196;22;884;-76
2022/11/02 02:46:59;;;;;;;;;;;;;;;16.37;77.51;100938.91;1297712;22;855;-76
2022/11/02 02:47:50;;;;;;;;;;;;;;;16.27;77.35;100936.19;1297548;22;617;-76
2022/11/02 02:48:40;;;;;;;;;;;;;;;16.24;76.03;100950.75;1297544;22;652;-75
2022/11/02 02:49:30;;;;;;;;;;;;;;;16.13;75.99;100933.81;1297603;22;624;-76
2022/11/02 02:50:21;;;;;;;;;;;;;;;16.08;74.46;100939.63;1297297;22;1313;-75
2022/11/02 02:51:11;;;;;;;;;;;;;;;16.18;75.69;100939.66;1297605;22;616;-75
2022/11/02 02:52:02;;;;;;;;;;;;;;;16.28;76.71;100946.81;1296948;22;633;-75
2022/11/02 02:52:52;;;;;;;;;;;;;;;16.41;77.54;100940.34;1297531;22;703;-76
2022/11/02 02:53:43;;;;;;;;;;;;;;;16.42;75.98;100950.13;1297418;22;737;-75
2022/11/02 02:54:33;;;;;;;;;;;;;;;16.41;76.92;100945.72;1297557;22;625;-75
2022/11/02 02:55:24;;;;;;;;;;;;;;;16.50;76.67;100947.59;1297576;22;907;-75
2022/11/02 02:56:14;;;;;;;;;;;;;;;16.47;76.62;100947.88;1297580;22;609;-75
2022/11/02 02:57:04;;;;;;;;;;;;;;;16.36;76.31;100945.25;1297530;22;681;-75
2022/11/02 02:57:55;;;;;;;;;;;;;;;16.40;77.30;100944.03;1297462;22;613;-75
2022/11/02 02:58:45;;;;;;;;;;;;;;;16.40;77.52;100942.19;1297396;22;650;-75
2022/11/02 02:59:36;;;;;;;;;;;;;;;16.34;76.10;100940.03;1297452;22;621;-75
2022/11/02 03:00:26;;;;;;;;;;;;;;;16.24;76.23;100931.91;1297385;22;613;-75
2022/11/02 03:01:16;;;;;;;;;;;;;;;16.18;76.73;100937.81;1297612;22;633;-75
2022/11/02 03:02:07;;;;;;;;;;;;;;;16.37;77.23;100944.28;1297450;22;673;-75
2022/11/02 03:03:00;;;;;;;;;;;;;;;16.35;76.22;100943.56;1297519;22;684;-75
2022/11/02 03:03:51;;;;;;;;;;;;;;;16.13;75.74;100940.03;1297372;22;782;-75
2022/11/02 03:04:41;;;;;;;;;;;;;;;16.18;76.52;100937.81;1297472;22;592;-75
2022/11/02 03:05:32;;;;;;;;;;;;;;;16.11;75.31;100939.34;1297666;22;648;-75
2022/11/02 03:06:23;;;;;;;;;;;;;;;16.04;74.24;100940.84;1296703;22;727;-75
2022/11/02 03:07:13;;;;;;;;;;;;;;;16.17;77.54;100941.50;1296763;22;652;-75
2022/11/02 03:08:04;;;;;;;;;;;;;;;16.11;75.58;100941.19;1297427;22;661;-75
2022/11/02 03:08:54;;;;;;;;;;;;;;;16.22;77.67;100944.63;1297552;22;723;-75
2022/11/02 03:09:45;;;;;;;;;;;;;;;16.37;77.13;100946.97;1297391;22;735;-74
2022/11/02 03:10:35;;;;;;;;;;;;;;;16.45;77.26;100949.84;1297592;22;617;-75
2022/11/02 03:11:26;;;;;;;;;;;;;;;16.28;75.02;100946.81;1297605;22;691;-75
2022/11/02 03:12:16;;;;;;;;;;;;;;;16.35;76.34;100943.56;1297480;22;613;-75
2022/11/02 03:13:06;;;;;;;;;;;;;;;16.38;75.72;100943.28;1297423;22;677;-77
2022/11/02 03:13:57;;;;;;;;;;;;;;;16.44;76.79;100934.69;1297402;22;648;-76
2022/11/02 03:14:47;;;;;;;;;;;;;;;16.31;75.99;100943.81;1297545;22;684;-76
2022/11/02 03:15:38;;;;;;;;;;;;;;;16.35;76.86;100939.03;1297432;22;680;-76
2022/11/02 03:16:28;;;;;;;;;;;;;;;16.23;74.43;100946.34;1297322;22;661;-76
2022/11/02 03:17:18;;;;;;;;;;;;;;;16.14;75.69;100936.38;1297577;22;665;-77
2022/11/02 03:18:09;;;;;;;;;;;;;;;15.87;73.37;100938.78;1297344;22;593;-77
2022/11/02 03:18:59;;;;;;;;;;;;;;;15.88;76.27;100961.97;1297514;22;620;-77
2022/11/02 03:19:50;;;;;;;;;;;;;;;15.92;77.26;100942.78;1297430;22;629;-77
2022/11/02 03:20:40;;;;;;;;;;;;;;;15.81;74.24;100931.22;1297571;22;667;-77
2022/11/02 03:21:31;;;;;;;;;;;;;;;15.72;74.22;100943.63;1297235;22;608;-77
2022/11/02 03:22:21;;;;;;;;;;;;;;;15.81;76.51;100950.88;1297518;22;671;-77
2022/11/02 03:23:12;;;;;;;;;;;;;;;15.87;77.31;100946.84;1297340;22;1884;-77
2022/11/02 03:24:02;;;;;;;;;;;;;;;16.02;77.11;100942.81;1297459;22;565;-77
2022/11/02 03:24:53;;;;;;;;;;;;;;;16.04;74.92;100950.75;1297504;22;597;-77
2022/11/02 03:25:43;;;;;;;;;;;;;;;16.07;76.71;100955.88;1297386;22;625;-77
2022/11/02 03:26:33;;;;;;;;;;;;;;;15.91;74.08;100951.81;1297591;22;613;-76
2022/11/02 03:27:24;;;;;;;;;;;;;;;15.92;75.27;100950.84;1297471;22;618;-76
2022/11/02 03:28:14;;;;;;;;;;;;;;;16.05;75.94;100963.22;1297500;22;652;-76
2022/11/02 03:29:05;;;;;;;;;;;;;;;15.87;75.17;100949.53;1297331;22;621;-76
2022/11/02 03:29:55;;;;;;;;;;;;;;;16.03;75.71;100936.47;1297432;22;668;-76
2022/11/02 03:30:46;;;;;;;;;;;;;;;16.05;76.58;100947.09;1297513;22;621;-76
2022/11/02 03:31:36;;;;;;;;;;;;;;;16.15;76.65;100954.22;1297439;22;672;-76
2022/11/02 03:32:26;;;;;;;;;;;;;;;16.10;74.33;100947.56;1297598;22;685;-76
2022/11/02 03:33:17;;;;;;;;;;;;;;;16.07;76.62;100951.34;1297170;22;614;-76
2022/11/02 03:34:07;;;;;;;;;;;;;;;16.11;76.51;100951.94;1297427;22;673;-77
2022/11/02 03:34:58;;;;;;;;;;;;;;;16.13;74.53;100953.50;1297325;22;641;-76
2022/11/02 03:35:48;;;;;;;;;;;;;;;16.06;74.06;100960.41;1297398;22;649;-76
2022/11/02 03:36:39;;;;;;;;;;;;;;;15.88;74.21;100951.22;1297537;22;621;-76
2022/11/02 03:37:29;;;;;;;;;;;;;;;15.86;74.35;100955.88;1297250;22;616;-77
2022/11/02 03:38:19;;;;;;;;;;;;;;;16.03;76.38;100954.44;1297465;22;680;-76
2022/11/02 03:39:10;;;;;;;;;;;;;;;16.04;76.20;100951.63;1297122;22;669;-76
2022/11/02 03:40:00;;;;;;;;;;;;;;;16.03;75.69;100949.91;1297693;22;625;-76
2022/11/02 03:40:51;;;;;;;;;;;;;;;15.94;75.27;100956.09;1297494;22;645;-76
2022/11/02 03:41:41;;;;;;;;;;;;;;;15.85;73.87;100962.22;1297366;22;609;-76
2022/11/02 03:42:31;;;;;;;;;;;;;;;15.86;75.93;100959.41;1297423;22;601;-76
2022/11/02 03:43:22;;;;;;;;;;;;;;;15.94;74.87;100961.47;1297152;22;1881;-76
2022/11/02 03:44:13;;;;;;;;;;;;;;;15.94;76.93;100953.41;1296324;22;653;-76
2022/11/02 03:45:03;;;;;;;;;;;;;;;15.85;74.24;100957.72;1297376;22;688;-75
2022/11/02 03:45:54;;;;;;;;;;;;;;;15.79;74.28;100952.00;1297346;22;653;-76
2022/11/02 03:46:44;;;;;;;;;;;;;;;15.97;77.05;100945.91;1297473;22;696;-76
2022/11/02 03:47:35;;;;;;;;;;;;;;;16.09;75.98;100954.75;1297657;22;649;-76
2022/11/02 03:48:25;;;;;;;;;;;;;;;16.18;76.65;100948.56;1297269;22;602;-75
2022/11/02 03:49:15;;;;;;;;;;;;;;;16.26;76.42;100954.16;1297282;22;684;-75
2022/11/02 03:50:07;;;;;;;;;;;;;;;16.07;73.04;100950.50;1296443;22;1218;-74
2022/11/02 03:50:57;;;;;;;;;;;;;;;16.07;75.54;100951.34;1296487;22;657;-74
2022/11/02 03:51:47;;;;;;;;;;;;;;;16.13;76.27;100966.94;1297840;22;703;-75
2022/11/02 03:52:38;;;;;;;;;;;;;;;16.05;74.71;100953.31;1297727;22;536;-75
2022/11/02 03:53:28;;;;;;;;;;;;;;;16.19;76.65;100952.13;1297835;22;696;-74
2022/11/02 03:54:19;;;;;;;;;;;;;;;16.14;75.12;100955.19;1298020;22;637;-74
2022/11/02 03:55:09;;;;;;;;;;;;;;;15.90;73.94;100963.56;1297849;22;660;-75
2022/11/02 03:56:00;;;;;;;;;;;;;;;16.07;77.17;100978.22;1297761;22;673;-75
2022/11/02 03:56:50;;;;;;;;;;;;;;;15.71;73.52;100971.47;1297794;22;621;-74
2022/11/02 03:57:41;;;;;;;;;;;;;;;15.69;75.36;100959.16;1297895;22;653;-75
2022/11/02 03:58:31;;;;;;;;;;;;;;;15.73;74.91;100972.19;1297787;22;614;-75
2022/11/02 03:59:21;;;;;;;;;;;;;;;15.73;75.77;100968.66;1297949;22;715;-75
2022/11/02 04:00:12;;;;;;;;;;;;;;;15.85;77.11;100972.97;1297753;22;609;-74
2022/11/02 04:01:02;;;;;;;;;;;;;;;15.98;75.48;100979.00;1297771;22;676;-75
2022/11/02 04:01:53;;;;;;;;;;;;;;;15.96;76.24;100975.59;1297510;22;751;-75
2022/11/02 04:02:43;;;;;;;;;;;;;;;16.01;74.87;100970.69;1297748;22;676;-76
2022/11/02 04:03:34;;;;;;;;;;;;;;;16.08;76.35;100982.63;1297627;22;1932;-75
2022/11/02 04:04:24;;;;;;;;;;;;;;;15.99;73.88;100983.41;1297116;22;629;-75
2022/11/02 04:05:15;;;;;;;;;;;;;;;15.89;75.28;100966.38;1297875;22;661;-75
2022/11/02 04:06:05;;;;;;;;;;;;;;;15.97;75.96;100980.84;1297708;22;637;-76
2022/11/02 04:06:55;;;;;;;;;;;;;;;15.98;75.18;100995.13;1297978;22;648;-76
2022/11/02 04:08:55;;;;;;;;;;;;;;;15.97;76.32;100988.06;1294997;22;637;-75
2022/11/02 04:09:46;;;;;;;;;;;;;;;15.94;75.04;100993.72;1297843;22;684;-74
2022/11/02 04:14:36;;;;;;;;;;;;;;;15.91;75.93;100993.97;1297945;22;655;-75
2022/11/02 04:15:14;;;;;;;;;;;;;;;15.79;75.41;100987.78;1295052;22;664;-75
2022/11/02 04:16:04;;;;;;;;;;;;;;;15.86;74.88;100998.88;1297831;22;667;-75
2022/11/02 04:19:29;;;;;;;;;;;;;;;15.50;74.56;101011.69;1295398;22;609;-75
2022/11/02 04:20:19;;;;;;;;;;;;;;;15.59;76.62;101021.69;1297595;22;617;-75
2022/11/02 04:21:09;;;;;;;;;;;;;;;15.75;76.77;101020.44;1297725;22;617;-75
2022/11/02 04:25:27;;;;;;;;;;;;;;;15.65;73.95;101043.66;1296165;22;602;-75
2022/11/02 04:26:18;;;;;;;;;;;;;;;15.61;75.09;101040.38;1297945;22;625;-75
2022/11/02 04:27:08;;;;;;;;;;;;;;;15.76;76.85;101043.63;1298639;22;625;-76
2022/11/02 04:27:58;;;;;;;;;;;;;;;15.75;75.90;101047.31;1297917;22;660;-75
2022/11/02 04:28:49;;;;;;;;;;;;;;;15.79;74.77;101056.78;1298735;22;659;-76
2022/11/02 04:29:39;;;;;;;;;;;;;;;15.62;74.53;101053.69;1297897;22;676;-77
2022/11/02 04:30:30;;;;;;;;;;;;;;;15.67;76.87;101060.50;1297959;22;641;-75
2022/11/02 04:31:20;;;;;;;;;;;;;;;15.59;74.44;101072.72;1297827;22;653;-75
2022/11/02 04:32:11;;;;;;;;;;;;;;;15.39;74.57;101072.66;1297719;22;648;-75
2022/11/02 04:34:10;;;;;;;;;;;;;;;15.49;76.26;101069.06;1296048;22;660;-76
2022/11/02 04:35:01;;;;;;;;;;;;;;;15.67;77.45;101068.56;1297861;22;684;-76
2022/11/02 04:35:51;;;;;;;;;;;;;;;15.56;74.72;101059.56;1297431;22;641;-75
2022/11/02 04:36:42;;;;;;;;;;;;;;;15.52;76.89;101060.78;1296538;22;672;-76
2022/11/02 04:38:41;;;;;;;;;;;;;;;15.98;77.04;101052.44;1295971;22;673;-76
2022/11/02 04:39:32;;;;;;;;;;;;;;;15.78;74.61;101068.53;1297742;22;675;-75